TimeEDT,TemperatureF,Dew PointF,Humidity,Sea Level PressureIn,VisibilityMPH,Wind Direction,Wind SpeedMPH,Gust SpeedMPH,PrecipitationIn,Events,Conditions,WindDirDegrees,DateUTC
12:08 AM,77.0,71.6,83,29.96,10.0,NE,13.8,-,N/A,,Mostly Cloudy,50,2012-10-24 04:08:00
12:26 AM,75.2,71.6,89,29.95,10.0,NE,10.4,-,N/A,,Scattered Clouds,40,2012-10-24 04:26:00
12:53 AM,75.9,71.1,85,29.95,10.0,NNE,10.4,-,N/A,,Partly Cloudy,20,2012-10-24 04:53:00
1:38 AM,75.2,71.6,89,29.93,10.0,Calm,Calm,-,0.02,Rain,Light Rain,0,2012-10-24 05:38:00
1:53 AM,73.9,71.1,91,29.93,10.0,North,5.8,-,0.02,,Overcast,360,2012-10-24 05:53:00
2:26 AM,75.2,71.6,89,29.91,10.0,North,4.6,-,N/A,,Mostly Cloudy,10,2012-10-24 06:26:00
2:53 AM,75.9,71.1,85,29.91,10.0,ENE,8.1,-,N/A,,Clear,70,2012-10-24 06:53:00
3:53 AM,75.9,70.0,82,29.89,10.0,East,10.4,-,N/A,,Clear,80,2012-10-24 07:53:00
4:53 AM,77.0,70.0,79,29.89,10.0,ENE,16.1,19.6,N/A,,Partly Cloudy,70,2012-10-24 08:53:00
5:53 AM,77.0,72.0,84,29.89,10.0,ENE,12.7,-,0.00,Rain,Light Rain,60,2012-10-24 09:53:00
6:53 AM,75.9,71.1,85,29.91,6.0,ENE,17.3,21.9,0.05,Rain,Rain,70,2012-10-24 10:53:00
7:53 AM,75.0,72.0,90,29.92,10.0,ENE,8.1,-,0.03,,Scattered Clouds,70,2012-10-24 11:53:00
8:41 AM,73.4,71.6,94,29.92,5.0,ENE,17.3,25.3,0.05,Rain-Thunderstorm,Light Thunderstorms and Rain,70,2012-10-24 12:41:00
8:53 AM,75.9,72.0,87,29.93,6.0,East,13.8,17.3,0.12,Rain,Light Rain,100,2012-10-24 12:53:00
9:29 AM,78.8,73.4,83,29.93,10.0,ENE,12.7,21.9,0.02,,Mostly Cloudy,60,2012-10-24 13:29:00
9:53 AM,80.1,73.0,79,29.94,10.0,ENE,12.7,21.9,0.02,,Overcast,70,2012-10-24 13:53:00
10:53 AM,82.0,71.1,69,29.94,10.0,East,21.9,26.5,N/A,,Mostly Cloudy,80,2012-10-24 14:53:00
11:53 AM,82.9,70.0,65,29.94,10.0,ENE,19.6,27.6,N/A,,Scattered Clouds,60,2012-10-24 15:53:00
12:53 PM,82.9,69.1,63,29.91,10.0,ENE,18.4,26.5,N/A,,Scattered Clouds,70,2012-10-24 16:53:00
1:53 PM,84.9,69.1,59,29.88,10.0,ENE,19.6,-,N/A,,Partly Cloudy,70,2012-10-24 17:53:00
2:53 PM,82.9,68.0,60,29.87,10.0,NE,15.0,27.6,N/A,,Scattered Clouds,50,2012-10-24 18:53:00
3:53 PM,82.0,68.0,62,29.86,10.0,NE,19.6,25.3,N/A,,Partly Cloudy,50,2012-10-24 19:53:00
4:53 PM,81.0,69.1,67,29.85,10.0,ENE,21.9,29.9,N/A,,Mostly Cloudy,60,2012-10-24 20:53:00
5:53 PM,80.1,71.1,74,29.84,10.0,ENE,24.2,31.1,0.00,Rain,Light Rain,60,2012-10-24 21:53:00
6:53 PM,79.0,70.0,74,29.85,10.0,ENE,21.9,28.8,0.00,,Scattered Clouds,70,2012-10-24 22:53:00
7:53 PM,78.1,71.1,79,29.86,10.0,ENE,11.5,-,N/A,,Scattered Clouds,60,2012-10-24 23:53:00
8:53 PM,78.8,71.6,78,29.85,10.0,NE,9.2,-,N/A,,Clear,40,2012-10-25 00:53:00
9:30 PM,77.0,73.4,89,29.86,9.0,East,10.4,-,0.02,Rain,Light Rain,80,2012-10-25 01:30:00
9:53 PM,78.1,73.0,84,29.86,10.0,ENE,12.7,-,0.02,,Scattered Clouds,60,2012-10-25 01:53:00
10:17 PM,78.8,73.4,83,29.86,9.0,ENE,13.8,18.4,N/A,Thunderstorm,Scattered Clouds,60,2012-10-25 02:17:00
10:32 PM,73.4,71.6,94,29.85,8.0,ENE,16.1,35.7,N/A,Rain,Heavy Rain,60,2012-10-25 02:32:00
10:53 PM,75.0,72.0,90,29.86,10.0,NNE,8.1,-,0.05,Rain,Light Rain,30,2012-10-25 02:53:00
11:53 PM,78.1,71.1,79,29.85,10.0,ENE,11.5,-,N/A,,Overcast,70,2012-10-25 03:53:00